Time;durP1;ratioP1;P1;durP2;ratioP2;P2;SDS_P1;SDS_P2;PMS_P1;PMS_P2;Temp;Humidity;BMP_temperature;BMP_pressure;BME280_temperature;BME280_humidity;BME280_pressure;Samples;Min_cycle;Max_cycle;Signal;HPM_P1;HPM_P2
2023/10/02 00:00:19;;;;;;;0.70;0.70;;;18.40;58.30;;;;;;5176160;27;20037;-69
2023/10/02 00:02:45;;;;;;;0.50;0.50;;;18.40;58.60;;;;;;5175788;27;20014;-68
2023/10/02 00:05:11;;;;;;;1.05;0.93;;;18.30;58.70;;;;;;5166867;27;20153;-69
2023/10/02 00:07:42;;;;;;;0.70;0.70;;;18.40;58.70;;;;;;5175885;27;20018;-68
2023/10/02 00:10:11;;;;;;;0.93;0.93;;;18.30;58.50;;;;;;5176539;27;20031;-68
2023/10/02 00:12:37;;;;;;;2.20;2.00;;;18.30;58.50;;;;;;5172073;27;20023;-68
2023/10/02 00:15:12;;;;;;;0.43;0.43;;;18.30;58.50;;;;;;5170727;27;20029;-69
2023/10/02 00:17:43;;;;;;;0.80;0.80;;;18.30;58.60;;;;;;5175225;27;20476;-68
2023/10/02 00:20:21;;;;;;;0.40;0.40;;;18.30;58.60;;;;;;5176158;27;20030;-69
2023/10/02 00:22:47;;;;;;;0.40;0.40;;;18.30;58.70;;;;;;5175574;27;20466;-69
2023/10/02 00:25:19;;;;;;;0.57;0.57;;;18.30;58.70;;;;;;5175203;27;20090;-69
2023/10/02 00:27:50;;;;;;;0.80;0.77;;;18.20;58.80;;;;;;5173088;27;20478;-68
2023/10/02 00:30:20;;;;;;;0.85;0.82;;;18.30;58.90;;;;;;5170740;27;20478;-68
2023/10/02 00:32:47;;;;;;;1.95;1.05;;;18.30;58.90;;;;;;5174839;27;20114;-68
2023/10/02 00:35:13;;;;;;;0.60;0.60;;;18.30;58.80;;;;;;5175344;27;20033;-68
2023/10/02 00:37:52;;;;;;;0.63;0.63;;;18.30;58.80;;;;;;5164033;27;20022;-69
2023/10/02 00:40:21;;;;;;;0.60;0.60;;;18.30;58.70;;;;;;5174232;27;20363;-68
2023/10/02 00:42:56;;;;;;;1.00;1.00;;;18.30;58.80;;;;;;5170969;27;20022;-69
2023/10/02 00:45:23;;;;;;;0.60;0.60;;;18.30;58.90;;;;;;5161604;27;20119;-68
2023/10/02 00:47:50;;;;;;;0.93;0.93;;;18.30;59.00;;;;;;5169963;27;20105;-67
2023/10/02 00:50:21;;;;;;;1.55;1.27;;;18.20;59.00;;;;;;5171791;27;20023;-67
2023/10/02 00:52:55;;;;;;;;;;;18.20;59.10;;;;;;5163637;27;20050;-67
2023/10/02 00:55:23;;;;;;;1.20;1.13;;;18.20;59.10;;;;;;5169658;27;19915;-67
2023/10/02 00:57:52;;;;;;;1.30;0.93;;;18.10;59.00;;;;;;5168572;27;20066;-67
2023/10/02 01:00:21;;;;;;;1.48;0.82;;;18.10;59.10;;;;;;5165136;27;20452;-67
2023/10/02 01:02:59;;;;;;;0.90;0.90;;;18.00;59.10;;;;;;5171556;27;20029;-67
2023/10/02 01:05:31;;;;;;;0.40;0.40;;;18.00;59.20;;;;;;5173810;27;20034;-68
2023/10/02 01:08:03;;;;;;;0.40;0.40;;;17.90;59.30;;;;;;5173582;27;20068;-68
2023/10/02 01:10:29;;;;;;;0.60;0.60;;;17.90;59.30;;;;;;5167381;27;20409;-68
2023/10/02 01:13:02;;;;;;;0.77;0.77;;;17.90;59.20;;;;;;5170911;27;20125;-68
2023/10/02 01:15:28;;;;;;;0.50;0.50;;;17.80;59.20;;;;;;5172538;27;20030;-68
2023/10/02 01:18:21;;;;;;;0.35;0.35;;;17.80;59.20;;;;;;5168710;27;20466;-68
2023/10/02 01:20:45;;;;;;;0.50;0.50;;;17.80;59.20;;;;;;5171570;27;20391;-67
2023/10/02 01:23:17;;;;;;;0.90;0.90;;;17.80;59.20;;;;;;5165258;27;20043;-68
2023/10/02 01:25:45;;;;;;;0.50;0.50;;;17.70;59.30;;;;;;5170820;27;20075;-66
2023/10/02 01:28:13;;;;;;;0.88;0.85;;;17.80;59.40;;;;;;5170836;27;20034;-68
2023/10/02 01:30:40;;;;;;;0.47;0.47;;;17.70;59.40;;;;;;5171511;27;20408;-66
2023/10/02 01:33:12;;;;;;;1.17;1.08;;;17.70;59.50;;;;;;5163933;27;20397;-67
2023/10/02 01:35:48;;;;;;;0.47;0.47;;;17.70;59.60;;;;;;5168496;27;20023;-66
2023/10/02 01:38:15;;;;;;;0.40;0.40;;;17.70;59.70;;;;;;5152555;27;20087;-67
2023/10/02 01:40:48;;;;;;;1.00;0.95;;;17.60;59.80;;;;;;5165015;27;20022;-66
2023/10/02 01:43:16;;;;;;;0.50;0.50;;;17.60;59.80;;;;;;5166896;27;20049;-67
2023/10/02 01:45:42;;;;;;;0.85;0.82;;;17.60;59.80;;;;;;5169547;27;20436;-66
2023/10/02 01:48:13;;;;;;;0.77;0.77;;;17.60;59.90;;;;;;5170928;27;20082;-66
2023/10/02 01:50:42;;;;;;;0.65;0.65;;;17.60;59.80;;;;;;5174014;27;20027;-66
2023/10/02 01:53:26;;;;;;;1.42;1.33;;;17.60;59.90;;;;;;5173444;27;20022;-66
2023/10/02 01:56:00;;;;;;;0.50;0.50;;;17.60;60.50;;;;;;5173958;27;20033;-67
2023/10/02 01:58:29;;;;;;;0.52;0.52;;;17.50;60.50;;;;;;5173902;27;20428;-68
2023/10/02 02:00:57;;;;;;;0.75;0.75;;;17.50;60.40;;;;;;5174129;27;20458;-68
2023/10/02 02:03:23;;;;;;;1.00;1.00;;;17.50;60.80;;;;;;5173630;27;20494;-67
2023/10/02 02:05:49;;;;;;;0.52;0.52;;;17.50;61.00;;;;;;5173823;27;20360;-66
2023/10/02 02:08:24;;;;;;;0.55;0.55;;;17.50;60.80;;;;;;5173299;27;20022;-66
2023/10/02 02:10:51;;;;;;;0.60;0.60;;;17.40;60.70;;;;;;5174012;27;20542;-66
2023/10/02 02:13:19;;;;;;;0.50;0.50;;;17.40;60.70;;;;;;5173338;27;20114;-66
2023/10/02 02:15:47;;;;;;;0.60;0.60;;;17.40;60.70;;;;;;5173796;27;20056;-66
2023/10/02 02:18:14;;;;;;;0.50;0.50;;;17.40;60.70;;;;;;5173484;27;20409;-66
2023/10/02 02:20:58;;;;;;;0.65;0.65;;;17.40;60.70;;;;;;5173621;27;20023;-66
2023/10/02 02:23:27;;;;;;;0.40;0.40;;;17.40;60.90;;;;;;5173471;27;20061;-66
2023/10/02 02:25:53;;;;;;;0.50;0.50;;;17.30;61.20;;;;;;5173612;27;20033;-66
2023/10/02 02:28:18;;;;;;;0.50;0.50;;;17.30;61.00;;;;;;5173541;27;20030;-66
2023/10/02 02:30:44;;;;;;;0.40;0.40;;;17.30;60.90;;;;;;5173460;27;20034;-66
2023/10/02 02:33:12;;;;;;;0.50;0.50;;;17.40;60.90;;;;;;5173162;27;20022;-65
2023/10/02 02:35:39;;;;;;;0.52;0.52;;;17.30;61.00;;;;;;5173615;27;20075;-67
2023/10/02 02:38:13;;;;;;;0.88;0.88;;;17.30;61.10;;;;;;5158734;27;20034;-67
2023/10/02 02:40:40;;;;;;;0.60;0.52;;;17.30;61.10;;;;;;5156842;27;20027;-66
2023/10/02 02:43:19;;;;;;;0.95;0.95;;;17.30;61.00;;;;;;5176990;27;20026;-66
2023/10/02 02:45:47;;;;;;;0.50;0.50;;;17.30;61.00;;;;;;5177439;27;20486;-66
2023/10/02 02:48:15;;;;;;;1.50;0.95;;;17.30;61.00;;;;;;5176774;27;20034;-66
2023/10/02 02:50:41;;;;;;;0.50;0.50;;;17.30;61.10;;;;;;5177188;27;20018;-66
2023/10/02 02:53:16;;;;;;;2.53;1.25;;;17.30;61.00;;;;;;5176916;27;20113;-67
2023/10/02 02:55:57;;;;;;;0.47;0.47;;;17.30;61.10;;;;;;5176723;27;20034;-67
2023/10/02 02:58:25;;;;;;;0.40;0.40;;;17.30;61.20;;;;;;5174276;27;20327;-67
2023/10/02 03:00:52;;;;;;;0.70;0.70;;;17.30;61.10;;;;;;5177153;27;20468;-66
2023/10/02 03:03:33;;;;;;;0.50;0.50;;;17.30;61.10;;;;;;5175579;27;20027;-67
2023/10/02 03:05:58;;;;;;;0.50;0.50;;;17.30;61.10;;;;;;5171210;27;20030;-67
2023/10/02 03:08:37;;;;;;;0.32;0.32;;;17.20;61.10;;;;;;5175975;27;20038;-66
2023/10/02 03:11:06;;;;;;;0.60;0.60;;;17.20;61.20;;;;;;5177178;27;20029;-66
2023/10/02 03:13:35;;;;;;;1.13;1.02;;;17.20;61.20;;;;;;5174343;27;20026;-66
2023/10/02 03:16:12;;;;;;;0.65;0.65;;;17.30;61.20;;;;;;5176974;27;20041;-66
2023/10/02 03:18:43;;;;;;;0.40;0.40;;;17.20;61.10;;;;;;5176465;27;20022;-67
2023/10/02 03:21:15;;;;;;;0.50;0.50;;;17.20;61.10;;;;;;5176939;27;20467;-67
2023/10/02 03:23:44;;;;;;;0.50;0.50;;;17.20;61.20;;;;;;5176347;27;20050;-67
2023/10/02 03:29:03;;;;;;;0.50;0.50;;;17.10;61.30;;;;;;5176475;27;20071;-67
2023/10/02 03:31:36;;;;;;;1.38;0.80;;;17.00;61.40;;;;;;5176287;27;20011;-66
2023/10/02 03:36:53;;;;;;;1.15;1.02;;;17.00;61.40;;;;;;5171974;27;20502;-66
2023/10/02 03:39:51;;;;;;;0.55;0.55;;;16.80;61.40;;;;;;5155333;27;20030;-66
2023/10/02 03:42:12;;;;;;;0.65;0.65;;;16.80;61.50;;;;;;5154783;27;20123;-67
2023/10/02 03:44:42;;;;;;;1.08;0.55;;;16.80;61.40;;;;;;5155425;27;20071;-66
2023/10/02 03:47:12;;;;;;;0.80;0.80;;;16.80;61.30;;;;;;5155082;27;20463;-67
2023/10/02 03:49:45;;;;;;;0.98;0.95;;;16.80;61.20;;;;;;5154606;27;20046;-66
2023/10/02 03:52:16;;;;;;;0.77;0.77;;;16.70;61.20;;;;;;5154820;27;20022;-68
2023/10/02 03:54:43;;;;;;;0.68;0.68;;;16.70;61.30;;;;;;5155074;27;20031;-67
2023/10/02 03:59:54;;;;;;;0.60;0.60;;;16.70;61.40;;;;;;5154895;27;20064;-66
2023/10/02 04:02:25;;;;;;;0.50;0.50;;;16.60;61.40;;;;;;5154600;27;20027;-67
2023/10/02 04:04:51;;;;;;;1.20;0.85;;;16.60;61.30;;;;;;5154748;27;20035;-67
2023/10/02 04:07:20;;;;;;;0.60;0.60;;;16.60;61.30;;;;;;5162829;27;20559;-67
2023/10/02 04:09:50;;;;;;;0.52;0.52;;;16.60;61.30;;;;;;5175002;27;20031;-67
2023/10/02 04:12:17;;;;;;;0.98;0.88;;;16.60;61.30;;;;;;5174982;27;20120;-67
2023/10/02 04:14:43;;;;;;;0.63;0.63;;;16.60;61.40;;;;;;5167683;27;20030;-67
2023/10/02 04:17:14;;;;;;;0.40;0.40;;;16.60;61.50;;;;;;5172148;27;20040;-67
2023/10/02 04:19:47;;;;;;;0.80;0.80;;;16.60;61.50;;;;;;5164213;27;20050;-67
2023/10/02 04:22:19;;;;;;;1.45;1.27;;;16.60;61.70;;;;;;5163799;27;20029;-67
2023/10/02 04:24:58;;;;;;;1.13;1.02;;;16.60;61.80;;;;;;5175057;27;20463;-67
2023/10/02 04:32:42;;;;;;;0.50;0.50;;;16.60;62.00;;;;;;5175283;27;20066;-67
2023/10/02 04:37:57;;;;;;;0.70;0.70;;;16.70;61.80;;;;;;5166217;27;20443;-67
2023/10/02 04:40:23;;;;;;;1.13;1.02;;;16.60;61.80;;;;;;5175222;27;20022;-67
2023/10/02 04:42:58;;;;;;;0.38;0.38;;;16.60;61.90;;;;;;5174487;27;20428;-67
2023/10/02 04:45:35;;;;;;;0.73;0.73;;;16.70;62.10;;;;;;5175153;27;20035;-67
2023/10/02 04:48:02;;;;;;;0.82;0.82;;;16.60;62.30;;;;;;5174312;27;20018;-67
2023/10/02 04:52:57;;;;;;;1.30;1.15;;;16.70;62.40;;;;;;5174616;27;20030;-67
2023/10/02 04:55:49;;;;;;;6.38;1.40;;;16.70;62.40;;;;;;5174831;27;20060;-67
2023/10/02 04:58:17;;;;;;;0.50;0.50;;;16.70;62.80;;;;;;5172848;27;20034;-68
2023/10/02 05:03:36;;;;;;;1.05;1.00;;;16.70;62.60;;;;;;5151397;27;20053;-67
2023/10/02 05:06:03;;;;;;;0.50;0.50;;;16.70;62.60;;;;;;5171709;27;20813;-67
2023/10/02 05:11:06;;;;;;;2.10;1.35;;;16.70;62.40;;;;;;5174532;27;20022;-66
2023/10/02 05:13:53;;;;;;;0.50;0.50;;;16.70;62.40;;;;;;5174014;27;20401;-68
2023/10/02 05:16:34;;;;;;;0.60;0.60;;;16.70;62.40;;;;;;5174242;27;20131;-68
2023/10/02 05:19:04;;;;;;;7.10;1.17;;;16.70;62.50;;;;;;5173902;27;20493;-68
2023/10/02 05:21:38;;;;;;;0.50;0.50;;;16.70;62.50;;;;;;5159786;27;20387;-68
2023/10/02 05:24:11;;;;;;;0.63;0.63;;;16.70;62.50;;;;;;5157792;27;20018;-68
2023/10/02 05:26:41;;;;;;;0.60;0.60;;;16.70;62.50;;;;;;5172745;27;20389;-68
2023/10/02 05:29:12;;;;;;;0.50;0.50;;;16.70;62.60;;;;;;5153551;27;20042;-67
2023/10/02 05:31:41;;;;;;;0.73;0.73;;;16.80;62.60;;;;;;5151150;27;20398;-67
2023/10/02 05:34:21;;;;;;;0.43;0.43;;;16.90;62.60;;;;;;5166994;27;20030;-68
2023/10/02 05:37:11;;;;;;;0.83;0.83;;;16.90;62.70;;;;;;5159085;27;20023;-67
2023/10/02 05:39:41;;;;;;;0.70;0.70;;;16.90;62.80;;;;;;5154127;27;20682;-67
2023/10/02 05:42:16;;;;;;;0.95;0.60;;;17.10;63.00;;;;;;5166638;27;20166;-68
2023/10/02 05:44:43;;;;;;;0.95;0.70;;;17.20;63.20;;;;;;5167338;27;20131;-68
2023/10/02 05:47:09;;;;;;;0.73;0.73;;;17.30;63.30;;;;;;5171688;27;20022;-68
2023/10/02 05:49:37;;;;;;;0.60;0.60;;;17.50;63.50;;;;;;5173861;27;20057;-69
2023/10/02 05:52:07;;;;;;;0.70;0.70;;;17.80;63.80;;;;;;5173646;27;20014;-68
2023/10/02 05:54:36;;;;;;;3.20;1.23;;;18.00;64.10;;;;;;5174108;27;20456;-67
2023/10/02 05:57:13;;;;;;;0.40;0.40;;;18.30;64.30;;;;;;5170186;27;20399;-68
2023/10/02 05:59:48;;;;;;;1.48;1.38;;;18.60;64.30;;;;;;5151839;27;20172;-68
2023/10/02 06:02:17;;;;;;;0.63;0.63;;;18.80;63.90;;;;;;5166408;27;20038;-67
2023/10/02 06:04:47;;;;;;;0.60;0.60;;;19.00;63.50;;;;;;5162517;27;20030;-67
2023/10/02 06:07:40;;;;;;;1.02;0.93;;;19.10;63.40;;;;;;5171578;27;20148;-67
2023/10/02 06:10:08;;;;;;;2.28;0.93;;;19.20;63.30;;;;;;5164114;27;20030;-68
2023/10/02 06:12:34;;;;;;;1.15;1.08;;;19.40;63.30;;;;;;5173168;27;20026;-68
2023/10/02 06:15:09;;;;;;;1.15;1.05;;;19.60;63.10;;;;;;5176310;27;20098;-67
2023/10/02 06:17:38;;;;;;;0.68;0.68;;;19.70;62.70;;;;;;5177472;27;20146;-67
2023/10/02 06:20:17;;;;;;;1.48;0.85;;;19.70;62.40;;;;;;5176990;27;20050;-67
2023/10/02 06:22:47;;;;;;;0.93;0.80;;;19.80;62.30;;;;;;5176834;27;20493;-67
2023/10/02 06:25:18;;;;;;;1.40;0.83;;;19.80;62.20;;;;;;5172829;27;20034;-68
2023/10/02 06:27:45;;;;;;;0.80;0.80;;;19.90;62.20;;;;;;5173072;27;20786;-68
2023/10/02 06:30:16;;;;;;;0.73;0.73;;;20.00;62.20;;;;;;5174475;27;20516;-68
2023/10/02 06:32:53;;;;;;;0.85;0.85;;;20.10;62.20;;;;;;5176335;27;20093;-67
2023/10/02 06:35:21;;;;;;;0.57;0.57;;;20.20;62.40;;;;;;5171200;27;20026;-67
2023/10/02 06:37:51;;;;;;;1.58;0.85;;;20.40;62.80;;;;;;5173206;27;20026;-67
2023/10/02 06:40:21;;;;;;;1.25;0.82;;;20.70;62.90;;;;;;5171138;27;20395;-67
2023/10/02 06:42:51;;;;;;;1.13;1.10;;;20.90;63.10;;;;;;5173069;27;20030;-67
2023/10/02 06:45:25;;;;;;;0.50;0.50;;;21.20;63.10;;;;;;5171502;27;20062;-67
2023/10/02 06:47:50;;;;;;;2.42;1.67;;;21.40;62.60;;;;;;5172399;27;20109;-67
2023/10/02 06:50:55;;;;;;;0.73;0.73;;;21.60;62.10;;;;;;5170443;27;20215;-67
2023/10/02 06:53:10;;;;;;;0.50;0.50;;;21.80;61.50;;;;;;5168657;27;20036;-67
2023/10/02 06:55:44;;;;;;;0.70;0.70;;;21.80;61.00;;;;;;5174487;27;20075;-67
2023/10/02 06:58:10;;;;;;;0.77;0.73;;;21.80;60.70;;;;;;5170239;27;20091;-67
2023/10/02 07:01:01;;;;;;;0.70;0.70;;;21.90;60.50;;;;;;5164383;27;20466;-66
2023/10/02 07:03:21;;;;;;;0.50;0.50;;;22.00;60.30;;;;;;5169705;27;20126;-68
2023/10/02 07:05:48;;;;;;;0.38;0.38;;;22.00;60.30;;;;;;5166588;27;20125;-68
2023/10/02 07:08:26;;;;;;;1.27;1.17;;;22.20;60.90;;;;;;5170419;27;20022;-68
2023/10/02 07:10:53;;;;;;;0.73;0.73;;;22.50;61.60;;;;;;5174144;27;20033;-71
2023/10/02 07:13:19;;;;;;;1.30;1.08;;;22.90;62.00;;;;;;5166697;27;20011;-68
2023/10/02 07:15:45;;;;;;;0.80;0.77;;;23.40;62.00;;;;;;5165196;27;20471;-68
2023/10/02 07:18:12;;;;;;;0.90;0.85;;;23.80;61.50;;;;;;5156222;27;20056;-68
2023/10/02 07:20:42;;;;;;;1.30;1.08;;;24.30;60.30;;;;;;5168169;27;20030;-68
2023/10/02 07:23:15;;;;;;;;;;;24.70;59.30;;;;;;5176421;27;20074;-69
2023/10/02 07:25:48;;;;;;;0.85;0.85;;;25.20;58.10;;;;;;5174633;27;20367;-69
2023/10/02 07:28:15;;;;;;;1.75;1.02;;;25.50;57.10;;;;;;5166596;27;20113;-66
2023/10/02 07:30:40;;;;;;;0.68;0.68;;;25.70;55.10;;;;;;5164652;27;20019;-68
2023/10/02 07:33:07;;;;;;;0.70;0.70;;;25.80;53.80;;;;;;5169341;27;20022;-67
2023/10/02 07:35:36;;;;;;;1.00;0.85;;;25.90;53.90;;;;;;5161110;27;20490;-68
2023/10/02 07:38:02;;;;;;;0.50;0.50;;;26.20;53.70;;;;;;5163286;27;20014;-68
2023/10/02 07:40:46;;;;;;;2.88;1.92;;;26.50;53.40;;;;;;5155390;27;20031;-68
2023/10/02 07:43:13;;;;;;;0.75;0.75;;;26.80;53.00;;;;;;5154684;27;20034;-68
2023/10/02 07:45:39;;;;;;;2.00;1.75;;;27.30;52.50;;;;;;5153757;27;20055;-68
2023/10/02 07:48:12;;;;;;;0.98;0.98;;;27.90;51.20;;;;;;5154628;27;20073;-69
2023/10/02 07:50:39;;;;;;;1.40;1.05;;;28.30;50.30;;;;;;5158595;27;20050;-69
2023/10/02 07:53:06;;;;;;;0.63;0.63;;;28.90;50.30;;;;;;5174471;27;20086;-69
2023/10/02 07:55:39;;;;;;;1.20;1.10;;;29.50;49.20;;;;;;5174915;27;20026;-69
2023/10/02 07:58:05;;;;;;;0.70;0.70;;;30.00;47.70;;;;;;5160090;27;20082;-68
2023/10/02 08:00:37;;;;;;;0.95;0.93;;;30.30;46.80;;;;;;5175575;27;20372;-69
2023/10/02 08:03:04;;;;;;;1.88;1.13;;;30.60;45.90;;;;;;5164993;27;20021;-69
2023/10/02 08:05:34;;;;;;;0.55;0.55;;;30.90;45.50;;;;;;5156868;27;20038;-68
2023/10/02 08:08:08;;;;;;;1.33;0.82;;;31.30;45.10;;;;;;5167366;27;20019;-69
2023/10/02 08:10:49;;;;;;;0.73;0.73;;;31.70;44.40;;;;;;5154805;27;20031;-69
2023/10/02 08:13:32;;;;;;;1.30;1.15;;;32.10;43.40;;;;;;5154426;27;20019;-69
2023/10/02 08:16:00;;;;;;;0.95;0.88;;;32.40;42.20;;;;;;5162363;27;20022;-70
2023/10/02 08:18:26;;;;;;;1.95;1.00;;;32.70;41.00;;;;;;5173123;27;20475;-70
2023/10/02 08:20:53;;;;;;;1.17;1.08;;;32.90;40.80;;;;;;5165825;27;20079;-69
2023/10/02 08:23:21;;;;;;;0.70;0.70;;;33.20;40.20;;;;;;5153678;27;20429;-69
2023/10/02 08:26:05;;;;;;;1.30;1.20;;;33.40;38.80;;;;;;5168320;27;20026;-70
2023/10/02 08:28:33;;;;;;;1.02;1.00;;;33.60;38.00;;;;;;5173036;27;20018;-70
2023/10/02 08:31:02;;;;;;;0.80;0.80;;;33.70;37.50;;;;;;5172707;27;20547;-69
2023/10/02 08:33:30;;;;;;;1.30;1.20;;;33.90;37.30;;;;;;5173935;27;20063;-70
2023/10/02 08:36:01;;;;;;;1.13;1.10;;;34.10;36.20;;;;;;5173645;27;20110;-68
2023/10/02 08:38:27;;;;;;;3.17;1.83;;;34.30;36.30;;;;;;5172956;27;20435;-69
2023/10/02 08:40:58;;;;;;;1.60;1.02;;;34.50;36.40;;;;;;5173227;27;20030;-70
2023/10/02 08:43:27;;;;;;;0.80;0.80;;;34.80;36.00;;;;;;5173780;27;20070;-70
2023/10/02 08:45:54;;;;;;;1.05;1.05;;;35.10;35.60;;;;;;5174985;27;20034;-69
2023/10/02 08:48:25;;;;;;;1.30;1.10;;;35.30;34.40;;;;;;5170580;27;20166;-69
2023/10/02 08:50:57;;;;;;;2.75;1.33;;;35.40;33.90;;;;;;5174562;27;20022;-69
2023/10/02 08:53:23;;;;;;;2.63;1.52;;;35.50;32.60;;;;;;5162979;27;20382;-68
2023/10/02 08:56:01;;;;;;;1.58;1.40;;;35.50;31.80;;;;;;5157358;27;20031;-69
2023/10/02 08:58:27;;;;;;;8.57;2.05;;;35.40;31.80;;;;;;5161176;27;20120;-69
2023/10/02 09:03:43;;;;;;;1.25;1.13;;;35.30;31.80;;;;;;5171324;27;20037;-68
2023/10/02 09:06:31;;;;;;;1.58;1.48;;;35.30;31.50;;;;;;5173064;27;20030;-70
2023/10/02 09:09:21;;;;;;;0.55;0.55;;;35.20;31.00;;;;;;5163098;27;20018;-70
2023/10/02 09:11:52;;;;;;;0.77;0.77;;;35.10;31.30;;;;;;5171962;27;20030;-67
2023/10/02 09:17:22;;;;;;;0.73;0.70;;;35.00;31.30;;;;;;5165806;27;20067;-68
2023/10/02 09:20:03;;;;;;;1.05;0.88;;;35.10;31.40;;;;;;5168585;27;20091;-69
2023/10/02 09:22:34;;;;;;;0.80;0.80;;;35.20;31.50;;;;;;5161237;27;20030;-69
2023/10/02 09:25:26;;;;;;;2.03;1.48;;;35.30;32.00;;;;;;5156067;27;20034;-69
2023/10/02 09:27:56;;;;;;;3.13;1.63;;;35.60;31.50;;;;;;5158755;27;20025;-69
2023/10/02 09:33:08;;;;;;;1.30;0.80;;;36.00;31.10;;;;;;5173833;27;20101;-69
2023/10/02 09:35:42;;;;;;;1.42;1.33;;;36.20;30.50;;;;;;5156638;27;20039;-69
2023/10/02 09:38:15;;;;;;;4.05;2.20;;;36.30;30.20;;;;;;5151323;27;20058;-70
2023/10/02 09:40:54;;;;;;;2.08;1.58;;;36.30;29.70;;;;;;5155929;27;20383;-69
2023/10/02 09:43:21;;;;;;;1.42;1.15;;;36.30;30.30;;;;;;5173292;27;20140;-70
2023/10/02 09:45:53;;;;;;;1.55;1.35;;;36.30;30.10;;;;;;5173989;27;20035;-69
2023/10/02 09:48:46;;;;;;;2.70;1.42;;;36.40;30.20;;;;;;5167646;27;20499;-70
2023/10/02 09:51:28;;;;;;;1.40;1.30;;;36.60;30.10;;;;;;5171342;27;20394;-70
2023/10/02 09:54:05;;;;;;;2.22;1.38;;;36.80;29.20;;;;;;5167357;27;20047;-69
2023/10/02 09:57:12;;;;;;;2.38;1.80;;;36.70;29.30;;;;;;5173253;27;20014;-69
2023/10/02 09:59:48;;;;;;;0.90;0.90;;;36.80;29.10;;;;;;5166219;27;20037;-69
2023/10/02 10:08:18;;;;;;;0.80;0.80;;;37.10;29.40;;;;;;5123613;27;20514;-70
2023/10/02 10:10:58;;;;;;;4.13;1.33;;;37.40;29.50;;;;;;5155925;27;20045;-69
2023/10/02 10:13:35;;;;;;;0.85;0.85;;;37.70;29.20;;;;;;5172978;27;20580;-69
2023/10/02 10:16:23;;;;;;;1.73;1.20;;;38.00;28.90;;;;;;5172218;27;20411;-69
2023/10/02 10:19:41;;;;;;;0.70;0.70;;;38.30;29.00;;;;;;5155632;27;20015;-69
2023/10/02 10:22:03;;;;;;;3.05;1.90;;;38.50;28.90;;;;;;5163597;27;20399;-69
2023/10/02 10:24:35;;;;;;;1.25;0.95;;;38.70;28.40;;;;;;5169906;27;20506;-69
2023/10/02 10:27:02;;;;;;;1.65;1.55;;;38.80;27.70;;;;;;5166978;27;20030;-69
2023/10/02 10:29:41;;;;;;;5.10;1.98;;;38.80;27.30;;;;;;5162668;27;20026;-70
2023/10/02 10:32:23;;;;;;;1.30;1.20;;;38.70;26.90;;;;;;5158151;27;20440;-70
2023/10/02 10:35:15;;;;;;;1.20;1.10;;;38.50;26.90;;;;;;5163902;27;20026;-69
2023/10/02 10:37:46;;;;;;;0.82;0.82;;;38.20;27.20;;;;;;5161843;27;20566;-69
2023/10/02 10:40:46;;;;;;;1.40;1.15;;;38.10;28.00;;;;;;5172907;27;20062;-69
2023/10/02 10:43:14;;;;;;;1.45;1.35;;;38.10;27.90;;;;;;5170985;27;20449;-69
2023/10/02 10:45:40;;;;;;;1.10;1.00;;;38.20;28.00;;;;;;5171147;27;20038;-69
2023/10/02 10:48:19;;;;;;;2.63;1.15;;;38.10;28.00;;;;;;5151784;27;20555;-69
2023/10/02 10:51:03;;;;;;;2.00;1.30;;;38.10;28.10;;;;;;5168198;27;20099;-69
2023/10/02 10:53:29;;;;;;;1.40;1.30;;;38.00;27.80;;;;;;5170637;27;20026;-69
2023/10/02 10:56:17;;;;;;;3.83;1.98;;;37.70;27.80;;;;;;5158892;27;20043;-69
2023/10/02 10:58:44;;;;;;;1.02;0.93;;;37.40;28.20;;;;;;5158824;27;20033;-69
2023/10/02 11:01:13;;;;;;;0.65;0.65;;;37.10;28.50;;;;;;5174538;27;20065;-70
2023/10/02 11:03:40;;;;;;;2.63;1.13;;;37.00;29.10;;;;;;5166972;27;20042;-69
2023/10/02 11:06:10;;;;;;;0.90;0.90;;;37.00;29.20;;;;;;5168783;27;20478;-70
2023/10/02 11:08:40;;;;;;;1.33;0.80;;;36.90;29.50;;;;;;5164590;27;20410;-69
2023/10/02 11:11:18;;;;;;;0.60;0.60;;;36.80;29.60;;;;;;5170514;27;20022;-68
2023/10/02 11:13:51;;;;;;;0.98;0.98;;;36.90;29.70;;;;;;5166397;27;20483;-69
2023/10/02 11:16:23;;;;;;;0.93;0.75;;;36.90;29.30;;;;;;5171797;27;20034;-69
2023/10/02 11:19:21;;;;;;;1.20;1.13;;;36.90;29.70;;;;;;5163106;27;20044;-70
2023/10/02 11:22:02;;;;;;;3.13;1.35;;;37.00;29.60;;;;;;5168685;27;20123;-69
2023/10/02 11:24:29;;;;;;;2.78;1.98;;;37.10;29.50;;;;;;5174407;27;20051;-69
2023/10/02 11:27:05;;;;;;;2.67;1.23;;;37.20;29.50;;;;;;5173628;27;20528;-69
2023/10/02 11:29:42;;;;;;;1.02;0.85;;;37.30;29.70;;;;;;5169859;27;20051;-70
2023/10/02 11:32:22;;;;;;;1.38;1.30;;;37.40;29.80;;;;;;5175882;27;20023;-69
2023/10/02 11:34:59;;;;;;;;;;;37.50;29.50;;;;;;5176673;27;20553;-69
2023/10/02 11:37:25;;;;;;;1.13;1.00;;;37.40;29.10;;;;;;5166255;27;19914;-70
2023/10/02 11:39:50;;;;;;;1.80;1.17;;;37.20;29.00;;;;;;5171070;27;20099;-71
2023/10/02 11:42:18;;;;;;;2.20;1.30;;;37.00;29.30;;;;;;5174524;27;20455;-70
2023/10/02 11:44:44;;;;;;;0.95;0.90;;;36.80;29.40;;;;;;5175121;27;20375;-70
2023/10/02 11:47:12;;;;;;;2.63;1.30;;;36.70;29.80;;;;;;5169678;27;20030;-70
2023/10/02 11:49:40;;;;;;;1.05;1.02;;;36.80;30.00;;;;;;5165886;27;20022;-70
2023/10/02 11:52:06;;;;;;;2.67;1.08;;;36.80;29.80;;;;;;5171972;27;20063;-69
2023/10/02 11:54:36;;;;;;;1.27;1.17;;;36.80;29.60;;;;;;5173517;27;20079;-70
2023/10/02 11:57:08;;;;;;;6.03;1.75;;;36.70;29.80;;;;;;5171844;27;20018;-70
2023/10/02 11:59:34;;;;;;;1.38;1.08;;;36.60;29.40;;;;;;5167334;27;20019;-71
2023/10/02 12:02:01;;;;;;;1.92;1.30;;;36.30;29.60;;;;;;5171831;27;20097;-71
2023/10/02 12:04:27;;;;;;;0.93;0.90;;;36.20;29.80;;;;;;5170488;27;20023;-71
2023/10/02 12:06:54;;;;;;;1.35;1.10;;;36.00;30.20;;;;;;5173430;27;20021;-71
2023/10/02 12:09:24;;;;;;;1.15;0.77;;;35.90;30.50;;;;;;5169629;27;20030;-70
2023/10/02 12:11:50;;;;;;;;;;;35.80;30.70;;;;;;5167068;27;20015;-70
2023/10/02 12:14:16;;;;;;;0.57;0.57;;;35.80;30.60;;;;;;5173945;27;20005;-70
2023/10/02 12:16:41;;;;;;;0.80;0.80;;;35.50;30.60;;;;;;5173386;27;20130;-69
2023/10/02 12:19:10;;;;;;;0.82;0.80;;;35.40;30.80;;;;;;5166478;27;20031;-69
2023/10/02 12:21:36;;;;;;;2.95;1.08;;;35.20;30.80;;;;;;5166682;27;20022;-70
2023/10/02 12:24:03;;;;;;;0.93;0.93;;;34.90;31.20;;;;;;5175905;27;20110;-70
2023/10/02 12:26:29;;;;;;;0.85;0.85;;;34.80;31.40;;;;;;5160342;27;20047;-70
2023/10/02 12:28:55;;;;;;;1.08;0.98;;;34.60;31.70;;;;;;5163019;27;20031;-70
2023/10/02 12:31:21;;;;;;;2.53;1.20;;;34.50;31.80;;;;;;5175485;27;20571;-71
2023/10/02 12:33:49;;;;;;;0.80;0.80;;;34.40;32.20;;;;;;5173753;27;20578;-71
2023/10/02 12:36:19;;;;;;;0.50;0.50;;;34.40;32.30;;;;;;5172384;27;20022;-71
2023/10/02 12:38:46;;;;;;;0.80;0.77;;;34.40;32.40;;;;;;5161259;27;20033;-70
2023/10/02 12:41:12;;;;;;;1.38;1.25;;;34.50;32.50;;;;;;5173140;27;20558;-70
2023/10/02 12:43:38;;;;;;;0.77;0.77;;;34.60;32.60;;;;;;5154734;27;20049;-70
2023/10/02 12:46:06;;;;;;;3.97;1.35;;;34.80;32.30;;;;;;5158046;27;20475;-71
2023/10/02 12:48:33;;;;;;;0.85;0.85;;;34.70;32.10;;;;;;5161332;27;20026;-70
2023/10/02 12:51:04;;;;;;;0.80;0.77;;;34.70;32.20;;;;;;5163517;27;20026;-70
2023/10/02 12:53:30;;;;;;;0.82;0.70;;;34.60;32.40;;;;;;5171278;27;20014;-70
2023/10/02 12:55:55;;;;;;;4.43;1.15;;;34.60;32.20;;;;;;5173238;27;20818;-70
2023/10/02 12:58:21;;;;;;;3.53;1.10;;;34.40;32.30;;;;;;5164021;27;20543;-70
2023/10/02 13:00:48;;;;;;;2.70;1.63;;;34.30;32.50;;;;;;5171196;27;20038;-70
2023/10/02 13:03:13;;;;;;;1.05;0.68;;;34.30;32.80;;;;;;5170579;27;20044;-70
2023/10/02 13:05:39;;;;;;;1.50;1.35;;;34.20;32.80;;;;;;5173996;27;20066;-70
2023/10/02 13:08:06;;;;;;;1.30;0.98;;;34.10;33.20;;;;;;5165028;27;20022;-69
2023/10/02 13:10:32;;;;;;;0.88;0.88;;;34.10;33.30;;;;;;5166992;27;20147;-70
2023/10/02 13:12:57;;;;;;;2.38;0.88;;;34.20;33.50;;;;;;5168728;27;20097;-69
2023/10/02 13:15:23;;;;;;;0.52;0.52;;;34.20;33.50;;;;;;5171396;27;20018;-70
2023/10/02 13:17:49;;;;;;;0.60;0.60;;;34.10;33.50;;;;;;5160560;27;20158;-70
2023/10/02 13:20:14;;;;;;;1.75;1.02;;;34.10;33.70;;;;;;5165861;27;20038;-70
2023/10/02 13:22:40;;;;;;;0.93;0.88;;;34.00;33.70;;;;;;5169749;27;20049;-70
2023/10/02 13:25:07;;;;;;;3.30;0.95;;;34.00;33.90;;;;;;5165439;27;20028;-69
2023/10/02 13:27:32;;;;;;;0.63;0.63;;;33.90;34.00;;;;;;5160704;27;20467;-70
2023/10/02 13:29:58;;;;;;;0.73;0.70;;;33.90;34.10;;;;;;5157813;27;20153;-70
2023/10/02 13:32:26;;;;;;;0.82;0.82;;;34.00;34.20;;;;;;5158682;27;20027;-69
2023/10/02 13:34:54;;;;;;;0.60;0.60;;;34.00;34.20;;;;;;5173122;27;20075;-70
2023/10/02 13:37:20;;;;;;;1.13;0.88;;;34.00;34.20;;;;;;5170625;27;20015;-71
2023/10/02 13:39:47;;;;;;;0.82;0.82;;;34.00;34.30;;;;;;5165268;27;20018;-71
2023/10/02 13:42:14;;;;;;;1.23;1.10;;;34.00;34.30;;;;;;5173941;27;20023;-70
2023/10/02 13:44:39;;;;;;;0.68;0.60;;;34.00;34.20;;;;;;5151608;27;20030;-70
2023/10/02 13:47:05;;;;;;;1.83;1.10;;;33.90;34.10;;;;;;5161154;27;20372;-70